createdAt,value
2022-11-14T00:01:11.046Z,61.27
2022-11-14T00:03:40.288Z,60.17
2022-11-14T00:06:09.280Z,58.33
2022-11-14T00:08:37.348Z,56.40
2022-11-14T00:11:05.449Z,50.13
2022-11-14T00:13:33.356Z,57.50
2022-11-14T00:16:01.228Z,67.37
2022-11-14T00:18:29.216Z,56.60
2022-11-14T00:20:58.688Z,60.23
2022-11-14T00:23:26.690Z,57.37
2022-11-14T00:25:54.559Z,60.70
2022-11-14T00:28:22.417Z,62.70
2022-11-14T00:30:50.676Z,65.90
2022-11-14T00:33:20.868Z,61.90
2022-11-14T00:35:53.138Z,63.37
2022-11-14T00:38:22.703Z,58.13
2022-11-14T00:40:50.577Z,64.40
2022-11-14T00:43:18.810Z,60.70
2022-11-14T00:45:47.806Z,61.53
2022-11-14T00:48:16.210Z,68.93
2022-11-14T00:50:44.585Z,57.57
2022-11-14T00:53:12.821Z,67.87
2022-11-14T00:55:43.434Z,65.63
2022-11-14T00:58:11.395Z,62.97
2022-11-14T01:00:39.823Z,58.33
2022-11-14T01:03:07.753Z,60.23
2022-11-14T01:05:42.248Z,67.50
2022-11-14T01:08:10.151Z,68.50
2022-11-14T01:10:41.951Z,68.93
2022-11-14T01:13:09.796Z,64.60
2022-11-14T01:15:40.817Z,69.20
2022-11-14T01:18:09.154Z,63.63
2022-11-14T01:20:40.034Z,68.83
2022-11-14T01:23:08.265Z,67.57
2022-11-14T01:25:37.076Z,66.77
2022-11-14T01:28:11.794Z,70.03
2022-11-14T01:30:40.163Z,68.73
2022-11-14T01:33:08.362Z,71.20
2022-11-14T01:35:39.652Z,70.03
2022-11-14T01:38:07.555Z,68.70
2022-11-14T01:40:35.504Z,77.37
2022-11-14T01:43:26.785Z,69.40
2022-11-14T01:45:57.886Z,83.57
2022-11-14T01:48:29.638Z,81.57
2022-11-14T01:51:01.268Z,77.17
2022-11-14T01:53:29.681Z,73.77
2022-11-14T01:56:02.671Z,77.53
2022-11-14T01:58:33.402Z,78.20
2022-11-14T02:01:01.526Z,76.60
2022-11-14T02:03:29.758Z,77.50
2022-11-14T02:05:58.786Z,67.37
2022-11-14T02:08:27.495Z,79.07
2022-11-14T02:10:55.681Z,65.37
2022-11-14T02:13:23.567Z,79.47
2022-11-14T02:15:53.198Z,62.50
2022-11-14T02:18:21.000Z,80.03
2022-11-14T02:20:50.177Z,74.00
2022-11-14T02:23:26.869Z,72.50
2022-11-14T02:25:55.376Z,72.03
2022-11-14T02:28:23.437Z,78.83
2022-11-14T02:30:51.475Z,67.20
2022-11-14T02:33:19.378Z,75.57
2022-11-14T02:35:47.226Z,67.73
2022-11-14T02:38:16.463Z,68.47
2022-11-14T02:40:44.342Z,74.10
2022-11-14T02:43:12.276Z,68.57
2022-11-14T02:45:40.142Z,71.00
2022-11-14T02:48:08.073Z,81.60
2022-11-14T02:50:36.026Z,71.07
2022-11-14T02:53:04.014Z,68.27
2022-11-14T02:55:33.166Z,73.97
2022-11-14T02:58:01.235Z,65.47
2022-11-14T03:00:29.398Z,71.50
2022-11-14T03:02:57.346Z,75.23
2022-11-14T03:05:25.209Z,66.47
2022-11-14T03:07:54.387Z,61.83
2022-11-14T03:10:22.357Z,75.97
2022-11-14T03:12:54.658Z,63.80
2022-11-14T03:15:22.756Z,73.43
2022-11-14T03:17:50.832Z,69.67
2022-11-14T03:20:19.583Z,68.30
2022-11-14T03:22:47.389Z,73.03
2022-11-14T03:25:15.385Z,70.23
2022-11-14T03:27:43.068Z,67.20
2022-11-14T03:30:13.572Z,67.90
2022-11-14T03:32:41.371Z,68.23
2022-11-14T03:35:10.440Z,73.50
2022-11-14T03:37:38.203Z,74.77
2022-11-14T03:40:07.228Z,68.77
2022-11-14T03:42:35.264Z,81.10
2022-11-14T03:45:03.126Z,60.13
2022-11-14T03:47:32.288Z,66.20
2022-11-14T03:50:00.044Z,74.60
2022-11-14T03:52:27.834Z,68.80
2022-11-14T03:54:55.956Z,65.50
2022-11-14T03:57:23.888Z,76.30
2022-11-14T03:59:51.973Z,80.47
2022-11-14T04:02:19.852Z,71.20
2022-11-14T04:04:48.982Z,64.30
2022-11-14T04:07:16.929Z,72.50
2022-11-14T04:09:47.232Z,70.43
2022-11-14T04:12:15.967Z,66.87
2022-11-14T04:14:44.107Z,66.50
2022-11-14T04:17:12.036Z,74.53
2022-11-14T04:19:39.939Z,67.47
2022-11-14T04:22:09.160Z,71.87
2022-11-14T04:24:37.055Z,74.43
2022-11-14T04:27:04.995Z,80.47
2022-11-14T04:29:32.729Z,69.47
2022-11-14T04:32:00.578Z,73.13
2022-11-14T04:34:28.468Z,78.03
2022-11-14T04:36:56.402Z,82.53
2022-11-14T04:39:25.720Z,74.17
2022-11-14T04:41:53.650Z,80.80
2022-11-14T04:44:21.514Z,90.83
2022-11-14T04:46:49.299Z,78.43
2022-11-14T04:49:17.021Z,82.63
2022-11-14T04:51:44.881Z,82.50
2022-11-14T04:54:12.808Z,73.63
2022-11-14T04:56:42.019Z,80.03
2022-11-14T04:59:09.905Z,76.17
2022-11-14T05:01:37.736Z,81.17
2022-11-14T05:04:05.937Z,84.73
2022-11-14T05:06:33.782Z,77.43
2022-11-14T05:09:01.521Z,88.43
2022-11-14T05:11:29.599Z,83.73
2022-11-14T05:13:58.749Z,77.47
2022-11-14T05:16:26.786Z,77.63
2022-11-14T05:18:55.248Z,74.57
2022-11-14T05:21:23.157Z,80.23
2022-11-14T05:23:51.019Z,89.33
2022-11-14T05:26:19.554Z,79.60
2022-11-14T05:28:47.442Z,87.43
2022-11-14T05:31:17.990Z,83.03
2022-11-14T05:33:46.774Z,78.67
2022-11-14T05:36:16.765Z,78.13
2022-11-14T05:38:45.120Z,78.40
2022-11-14T05:41:15.197Z,79.40
2022-11-14T05:43:43.854Z,76.93
2022-11-14T05:46:13.937Z,83.10
2022-11-14T05:48:43.790Z,75.87
2022-11-14T05:51:13.820Z,58.27
2022-11-14T05:53:42.453Z,79.83
2022-11-14T05:56:12.470Z,74.33
2022-11-14T05:58:40.750Z,78.30
2022-11-14T06:01:10.533Z,80.93
2022-11-14T06:03:40.347Z,89.10
2022-11-14T06:06:12.513Z,72.57
2022-11-14T06:08:41.112Z,82.83
2022-11-14T06:11:10.727Z,72.17
2022-11-14T06:13:38.798Z,80.80
2022-11-14T06:16:08.971Z,83.60
2022-11-14T06:18:36.962Z,75.57
2022-11-14T06:21:07.419Z,81.33
2022-11-14T06:23:36.704Z,84.27
2022-11-14T06:26:07.629Z,67.90
2022-11-14T06:28:35.836Z,67.33
2022-11-14T06:31:05.732Z,69.17
2022-11-14T06:33:36.061Z,72.87
2022-11-14T06:36:07.175Z,69.93
2022-11-14T06:38:37.849Z,85.97
2022-11-14T06:41:07.032Z,83.23
2022-11-14T06:43:35.043Z,76.63
2022-11-14T06:46:03.303Z,69.67
2022-11-14T06:48:31.928Z,69.93
2022-11-14T06:51:00.751Z,73.07
2022-11-14T06:53:30.789Z,67.60
2022-11-14T06:56:01.620Z,71.80
2022-11-14T06:58:38.849Z,68.57
2022-11-14T07:01:11.977Z,77.50
2022-11-14T07:03:39.923Z,80.20
2022-11-14T07:06:09.371Z,77.10
2022-11-14T07:08:37.217Z,83.07
2022-11-14T07:11:09.076Z,70.97
2022-11-14T07:13:37.631Z,76.10
2022-11-14T07:16:06.608Z,75.37
2022-11-14T07:18:34.829Z,71.37
2022-11-14T07:21:05.468Z,84.90
2022-11-14T07:23:35.071Z,73.97
2022-11-14T07:26:04.532Z,73.10
2022-11-14T07:28:34.804Z,74.63
2022-11-14T07:31:04.133Z,70.07
2022-11-14T07:33:32.836Z,77.87
2022-11-14T07:36:00.872Z,73.57
2022-11-14T07:38:29.245Z,74.77
2022-11-14T07:40:59.929Z,76.47
2022-11-14T07:43:29.370Z,72.80
2022-11-14T07:46:02.428Z,72.97
2022-11-14T07:48:31.084Z,79.33
2022-11-14T07:51:02.599Z,54.20
2022-11-14T07:53:30.912Z,69.23
2022-11-14T07:56:03.131Z,69.87
2022-11-14T07:58:31.199Z,74.13
2022-11-14T08:01:03.690Z,67.13
2022-11-14T08:03:31.975Z,72.50
2022-11-14T08:06:03.732Z,60.83
2022-11-14T08:08:32.568Z,53.13
2022-11-14T08:11:01.177Z,67.70
2022-11-14T08:13:32.982Z,64.87
2022-11-14T08:16:12.001Z,70.80
2022-11-14T08:18:40.639Z,71.40
2022-11-14T08:21:08.859Z,76.33
2022-11-14T08:23:36.960Z,64.17
2022-11-14T08:26:04.978Z,65.10
2022-11-14T08:28:33.104Z,66.23
2022-11-14T08:31:02.262Z,71.57
2022-11-14T08:33:32.552Z,77.40
2022-11-14T08:36:02.578Z,68.27
2022-11-14T08:38:31.680Z,75.00
2022-11-14T08:40:59.874Z,65.57
2022-11-14T08:43:28.012Z,76.27
2022-11-14T08:46:01.653Z,67.43
2022-11-14T08:48:32.335Z,69.93
2022-11-14T08:51:04.265Z,67.70
2022-11-14T08:53:33.123Z,65.50
2022-11-14T08:56:04.316Z,59.53
2022-11-14T08:58:33.607Z,60.37
2022-11-14T09:01:03.340Z,69.47
2022-11-14T09:03:32.994Z,66.77
2022-11-14T09:06:01.719Z,61.40
2022-11-14T09:08:30.776Z,69.17
2022-11-14T09:11:05.112Z,60.53
2022-11-14T09:13:34.502Z,64.83
2022-11-14T09:16:02.795Z,64.23
2022-11-14T09:18:32.760Z,58.73
2022-11-14T09:21:02.104Z,59.10
2022-11-14T09:23:30.515Z,59.80
2022-11-14T09:26:00.312Z,67.80
2022-11-14T09:28:28.147Z,63.70
2022-11-14T09:31:01.486Z,60.30
2022-11-14T09:33:29.656Z,57.10
2022-11-14T09:35:59.918Z,57.00
2022-11-14T09:38:27.829Z,56.83
2022-11-14T09:41:06.013Z,58.37
2022-11-14T09:43:48.673Z,61.90
2022-11-14T09:46:22.732Z,62.10
2022-11-14T09:48:52.980Z,51.07
2022-11-14T09:51:24.971Z,60.67
2022-11-14T09:53:57.163Z,55.93
2022-11-14T09:56:26.891Z,49.70
2022-11-14T09:58:57.049Z,55.97
2022-11-14T10:01:37.524Z,55.60
2022-11-14T10:04:15.428Z,49.20
2022-11-14T10:06:56.409Z,48.77
2022-11-14T10:09:40.072Z,49.00
2022-11-14T10:12:16.448Z,43.83
2022-11-14T10:15:15.721Z,55.77
2022-11-14T10:18:04.076Z,56.97
2022-11-14T10:20:38.207Z,56.40
2022-11-14T10:23:23.080Z,60.00
2022-11-14T10:25:57.079Z,49.73
2022-11-14T10:28:43.275Z,52.80
2022-11-14T10:31:29.893Z,46.27
2022-11-14T10:34:05.281Z,50.60
2022-11-14T10:36:50.611Z,46.93
2022-11-14T10:39:24.571Z,55.07
2022-11-14T10:42:01.033Z,44.10
2022-11-14T10:44:37.954Z,44.70
2022-11-14T10:47:11.738Z,49.97
2022-11-14T10:49:40.584Z,42.10
2022-11-14T10:52:14.182Z,50.27
2022-11-14T10:54:49.812Z,42.47
2022-11-14T10:57:20.976Z,51.37
2022-11-14T10:59:49.050Z,46.60
2022-11-14T11:02:18.295Z,43.87
2022-11-14T11:04:47.049Z,42.77
2022-11-14T11:07:42.203Z,50.60
2022-11-14T11:10:40.380Z,43.23
2022-11-14T11:13:15.742Z,42.63
2022-11-14T11:15:44.197Z,47.53
2022-11-14T11:18:29.216Z,54.87
2022-11-14T11:21:14.307Z,46.40
2022-11-14T11:23:51.864Z,40.13
2022-11-14T11:26:24.174Z,39.10
2022-11-14T11:29:08.887Z,46.43
2022-11-14T11:32:00.561Z,45.10
2022-11-14T11:34:29.668Z,46.53
2022-11-14T11:37:04.208Z,42.80
2022-11-14T11:39:37.017Z,45.70
2022-11-14T11:42:25.917Z,39.93
2022-11-14T11:45:02.602Z,43.03
2022-11-14T11:47:35.315Z,38.63
2022-11-14T11:53:24.526Z,45.30
2022-11-14T11:55:56.498Z,42.63
2022-11-14T11:58:30.773Z,43.60
2022-11-14T12:00:58.696Z,39.30
2022-11-14T12:03:27.860Z,42.50
2022-11-14T12:06:04.590Z,39.50
2022-11-14T12:08:40.449Z,35.23
2022-11-14T12:11:15.260Z,37.47
2022-11-14T12:13:59.135Z,39.93
2022-11-14T12:16:39.136Z,34.70
2022-11-14T12:19:32.590Z,36.20
2022-11-14T12:22:37.009Z,35.40
2022-11-14T12:25:35.673Z,38.57
2022-11-14T12:28:16.778Z,36.13
2022-11-14T12:30:51.276Z,35.87
2022-11-14T12:33:25.348Z,31.20
2022-11-14T12:35:56.165Z,33.37
2022-11-14T12:38:26.183Z,37.43
2022-11-14T12:40:56.048Z,35.40
2022-11-14T12:43:36.951Z,31.40
2022-11-14T12:46:09.930Z,37.97
2022-11-14T12:48:39.849Z,34.63
2022-11-14T12:51:46.957Z,33.97
2022-11-14T12:54:45.569Z,31.77
2022-11-14T12:57:44.980Z,31.37
2022-11-14T13:00:13.488Z,31.80
2022-11-14T13:03:11.326Z,27.87
2022-11-14T13:05:54.178Z,34.13
2022-11-14T13:08:47.731Z,28.83
2022-11-14T13:11:54.884Z,33.20
2022-11-14T13:14:40.489Z,33.67
2022-11-14T13:17:43.878Z,29.10
2022-11-14T13:20:46.427Z,38.13
2022-11-14T13:23:51.773Z,26.20
2022-11-14T13:26:42.934Z,33.77
2022-11-14T13:29:47.997Z,30.60
2022-11-14T13:33:03.482Z,27.90
2022-11-14T13:35:44.518Z,27.57
2022-11-14T13:39:00.425Z,24.00
2022-11-14T13:41:47.761Z,27.97
2022-11-14T13:44:53.624Z,37.90
2022-11-14T13:47:55.637Z,29.53
2022-11-14T13:50:30.809Z,29.30
2022-11-14T13:53:00.704Z,30.17
2022-11-14T13:55:38.928Z,28.57
2022-11-14T13:58:24.068Z,32.93
2022-11-14T14:01:07.783Z,31.70
2022-11-14T14:03:57.141Z,25.73
2022-11-14T14:06:39.479Z,24.67
2022-11-14T14:09:35.412Z,25.57
2022-11-14T14:12:20.341Z,29.97
2022-11-14T14:15:04.514Z,28.80
2022-11-14T14:17:39.107Z,25.73
2022-11-14T14:20:23.092Z,29.03
2022-11-14T14:23:01.662Z,29.17
2022-11-14T14:25:40.269Z,30.47
2022-11-14T14:28:16.633Z,29.33
2022-11-14T14:31:03.073Z,31.97
2022-11-14T14:33:41.406Z,25.30
2022-11-14T14:36:21.419Z,27.23
2022-11-14T14:38:50.284Z,23.30
2022-11-14T14:41:21.226Z,25.43
2022-11-14T14:43:56.305Z,28.10
2022-11-14T14:46:30.728Z,28.67
2022-11-14T14:49:00.981Z,31.43
2022-11-14T14:51:34.369Z,25.90
2022-11-14T14:54:02.557Z,25.87
2022-11-14T14:56:31.819Z,25.33
2022-11-14T14:58:59.747Z,28.23
2022-11-14T15:01:33.869Z,28.57
2022-11-14T15:04:06.060Z,30.63
2022-11-14T15:06:36.604Z,32.77
2022-11-14T15:09:10.697Z,27.13
2022-11-14T15:11:43.273Z,24.03
2022-11-14T15:14:15.546Z,26.63
2022-11-14T15:16:51.161Z,40.77
2022-11-14T15:19:21.962Z,28.30
2022-11-14T15:22:04.332Z,28.73
2022-11-14T15:24:32.798Z,30.67
2022-11-14T15:27:05.844Z,33.67
2022-11-14T15:29:34.010Z,30.67
2022-11-14T15:32:06.560Z,35.50
2022-11-14T15:34:36.590Z,39.93
2022-11-14T15:37:23.204Z,33.20
2022-11-14T15:39:51.137Z,29.37
2022-11-14T15:42:27.955Z,29.53
2022-11-14T15:44:56.445Z,30.00
2022-11-14T15:47:26.350Z,28.57
2022-11-14T15:49:59.999Z,32.20
2022-11-14T15:52:32.846Z,32.57
2022-11-14T15:55:01.016Z,38.57
2022-11-14T15:57:30.588Z,30.33
2022-11-14T15:59:58.603Z,36.23
2022-11-14T16:02:30.271Z,33.73
2022-11-14T16:04:59.994Z,31.23
2022-11-14T16:07:29.523Z,31.53
2022-11-14T16:09:57.711Z,30.07
2022-11-14T16:12:25.651Z,33.60
2022-11-14T16:14:54.923Z,31.63
2022-11-14T16:17:22.887Z,33.30
2022-11-14T16:19:50.678Z,36.80
2022-11-14T16:22:19.516Z,51.27
2022-11-14T16:24:47.218Z,36.97
2022-11-14T16:27:15.696Z,39.60
2022-11-14T16:29:43.647Z,41.67
2022-11-14T16:32:13.027Z,37.10
2022-11-14T16:34:40.923Z,34.93
2022-11-14T16:37:13.393Z,33.33
2022-11-14T16:39:41.358Z,31.93
2022-11-14T16:42:12.137Z,31.50
2022-11-14T16:44:42.935Z,31.33
2022-11-14T16:47:16.172Z,34.00
2022-11-14T16:49:46.154Z,28.47
2022-11-14T16:52:16.500Z,37.80
2022-11-14T16:54:44.375Z,33.10
2022-11-14T16:57:12.697Z,29.87
2022-11-14T16:59:40.570Z,31.57
2022-11-14T17:02:08.411Z,31.03
2022-11-14T17:04:37.923Z,31.90
2022-11-14T17:07:05.836Z,39.80
2022-11-14T17:09:33.752Z,32.43
2022-11-14T17:12:01.823Z,31.43
2022-11-14T17:14:30.048Z,36.20
2022-11-14T17:17:01.617Z,32.73
2022-11-14T17:19:30.700Z,33.97
2022-11-14T17:22:00.372Z,32.73
2022-11-14T17:24:31.352Z,32.83
2022-11-14T17:27:00.058Z,33.80
2022-11-14T17:29:27.915Z,36.90
2022-11-14T17:31:56.417Z,32.23
2022-11-14T17:34:24.384Z,40.50
2022-11-14T17:36:52.287Z,29.03
2022-11-14T17:39:21.534Z,33.53
2022-11-14T17:41:49.677Z,31.97
2022-11-14T17:44:17.869Z,31.70
2022-11-14T17:46:47.417Z,35.60
2022-11-14T17:49:15.575Z,34.80
2022-11-14T17:51:43.463Z,38.93
2022-11-14T17:54:11.574Z,34.13
2022-11-14T17:56:46.521Z,31.77
2022-11-14T17:59:15.697Z,33.23
2022-11-14T18:01:43.733Z,34.20
2022-11-14T18:04:12.649Z,36.73
2022-11-14T18:06:40.587Z,37.27
2022-11-14T18:09:14.023Z,33.07
2022-11-14T18:11:44.053Z,34.67
2022-11-14T18:14:12.823Z,33.77
2022-11-14T18:17:10.408Z,32.17
2022-11-14T18:19:28.490Z,36.80
2022-11-14T18:21:57.105Z,33.30
2022-11-14T18:24:24.929Z,35.37
2022-11-14T18:26:55.566Z,30.93
2022-11-14T18:29:23.362Z,34.17
2022-11-14T18:31:51.186Z,37.17
2022-11-14T18:34:19.543Z,37.87
2022-11-14T18:36:47.471Z,29.73
2022-11-14T18:39:15.371Z,31.87
2022-11-14T18:41:43.320Z,30.67
2022-11-14T18:44:12.431Z,34.33
2022-11-14T18:46:40.589Z,42.93
2022-11-14T18:49:08.754Z,31.93
2022-11-14T18:51:42.029Z,29.97
2022-11-14T18:54:12.313Z,32.33
2022-11-14T18:56:40.974Z,31.23
2022-11-14T18:59:09.920Z,37.03
2022-11-14T19:01:39.328Z,33.80
2022-11-14T19:04:08.867Z,33.90
2022-11-14T19:06:39.546Z,31.50
2022-11-14T19:09:11.584Z,36.03
2022-11-14T19:11:57.387Z,34.37
2022-11-14T19:14:25.447Z,32.93
2022-11-14T19:16:54.893Z,30.37
2022-11-14T19:19:22.853Z,31.67
2022-11-14T19:21:51.382Z,34.03
2022-11-14T19:24:19.712Z,30.20
2022-11-14T19:26:47.958Z,37.93
2022-11-14T19:29:15.746Z,30.77
2022-11-14T19:31:44.724Z,34.53
2022-11-14T19:34:15.523Z,33.57
2022-11-14T19:37:01.165Z,37.17
2022-11-14T19:39:29.707Z,33.23
2022-11-14T19:41:57.824Z,32.00
2022-11-14T19:44:25.802Z,31.50
2022-11-14T19:46:53.844Z,31.70
2022-11-14T19:49:23.042Z,35.60
2022-11-14T19:51:51.128Z,34.77
2022-11-14T19:54:19.302Z,25.23
2022-11-14T19:56:47.286Z,34.13
2022-11-14T19:59:18.026Z,31.13
2022-11-14T20:01:55.169Z,29.90
2022-11-14T20:04:24.704Z,34.83
2022-11-14T20:06:52.825Z,33.63
2022-11-14T20:09:20.972Z,31.83
2022-11-14T20:11:49.137Z,35.53
2022-11-14T20:14:17.310Z,36.60
2022-11-14T20:16:46.202Z,32.20
2022-11-14T20:19:14.735Z,38.00
2022-11-14T20:21:44.399Z,34.60
2022-11-14T20:24:14.356Z,35.70
2022-11-14T20:26:42.458Z,32.97
2022-11-14T20:29:10.548Z,32.10
2022-11-14T20:31:38.470Z,35.77
2022-11-14T20:34:06.500Z,34.97
2022-11-14T20:36:56.578Z,37.50
2022-11-14T20:39:24.295Z,34.90
2022-11-14T20:41:52.354Z,35.27
2022-11-14T20:44:20.460Z,34.90
2022-11-14T20:46:48.511Z,36.30
2022-11-14T20:49:16.506Z,32.77
2022-11-14T20:51:44.473Z,32.77
2022-11-14T20:54:12.608Z,34.10
2022-11-14T20:56:42.070Z,34.43
2022-11-14T20:59:10.088Z,36.23
2022-11-14T21:01:43.432Z,36.43
2022-11-14T21:04:12.073Z,36.17
2022-11-14T21:06:40.129Z,37.13
2022-11-14T21:09:08.859Z,38.20
2022-11-14T21:11:36.866Z,45.93
2022-11-14T21:14:06.234Z,42.90
2022-11-14T21:16:36.606Z,38.20
2022-11-14T21:19:05.702Z,38.00
2022-11-14T21:21:36.089Z,36.37
2022-11-14T21:24:04.306Z,35.43
2022-11-14T21:26:34.448Z,40.67
2022-11-14T21:29:04.109Z,60.13
2022-11-14T21:31:35.005Z,40.17
2022-11-14T21:34:04.366Z,37.23
2022-11-14T21:36:48.159Z,33.97
2022-11-14T21:39:17.482Z,33.90
2022-11-14T21:41:48.543Z,40.03
2022-11-14T21:44:17.891Z,42.93
2022-11-14T21:46:48.816Z,39.50
2022-11-14T21:49:17.066Z,39.13
2022-11-14T21:51:45.001Z,40.60
2022-11-14T21:54:12.916Z,35.10
2022-11-14T21:56:40.832Z,43.70
2022-11-14T21:59:15.523Z,41.10
2022-11-14T22:02:03.467Z,41.57
2022-11-14T22:04:33.442Z,35.00
2022-11-14T22:07:03.657Z,41.47
2022-11-14T22:09:32.408Z,41.67
2022-11-14T22:12:01.032Z,43.63
2022-11-14T22:14:29.651Z,41.53
2022-11-14T22:16:58.901Z,40.17
2022-11-14T22:19:26.740Z,41.43
2022-11-14T22:21:55.916Z,45.77
2022-11-14T22:24:23.904Z,38.80
2022-11-14T22:26:51.864Z,43.83
2022-11-14T22:29:19.987Z,43.47
2022-11-14T22:31:47.958Z,43.00
2022-11-14T22:34:15.895Z,41.80
2022-11-14T22:36:43.785Z,41.70
2022-11-14T22:39:13.266Z,37.63
2022-11-14T22:41:41.286Z,46.30
2022-11-14T22:44:09.137Z,40.90
2022-11-14T22:46:37.055Z,39.43
2022-11-14T22:49:05.037Z,40.70
2022-11-14T22:51:33.326Z,42.73
2022-11-14T22:54:01.267Z,42.00
2022-11-14T22:56:31.019Z,37.93
2022-11-14T22:59:00.610Z,44.23
2022-11-14T23:01:31.247Z,42.50
2022-11-14T23:04:01.305Z,39.27
2022-11-14T23:06:31.317Z,42.20
2022-11-14T23:08:59.753Z,42.90
2022-11-14T23:11:29.190Z,39.80
2022-11-14T23:14:00.234Z,38.90
2022-11-14T23:16:29.608Z,41.93
2022-11-14T23:18:58.824Z,45.00
2022-11-14T23:21:28.466Z,43.10
2022-11-14T23:23:57.556Z,45.60
2022-11-14T23:26:26.587Z,43.73
2022-11-14T23:28:55.448Z,43.10
2022-11-14T23:31:28.624Z,48.37
2022-11-14T23:33:58.096Z,40.43
2022-11-14T23:36:26.768Z,44.87
2022-11-14T23:38:55.727Z,45.50
2022-11-14T23:41:25.700Z,42.07
2022-11-14T23:43:53.962Z,42.33
2022-11-14T23:46:22.021Z,70.07
2022-11-14T23:48:53.468Z,47.37
2022-11-14T23:51:21.540Z,41.00
2022-11-14T23:53:49.316Z,41.97
2022-11-14T23:56:17.543Z,44.67
2022-11-14T23:58:45.275Z,48.00
